Time;durP1;ratioP1;P1;durP2;ratioP2;P2;SDS_P1;SDS_P2;PMS_P1;PMS_P2;Temp;Humidity;BMP_temperature;BMP_pressure;BME280_temperature;BME280_humidity;BME280_pressure;Samples;Min_cycle;Max_cycle;Signal;HPM_P1;HPM_P2
2023/04/25 00:02:15;;;;;;;5.73;2.50;;;18.30;81.60;;;;;;4890244;29;20605;-80
2023/04/25 00:04:44;;;;;;;4.93;2.63;;;18.30;81.20;;;;;;4889312;29;20197;-80
2023/04/25 00:07:13;;;;;;;3.60;2.07;;;18.30;81.10;;;;;;4894988;29;20196;-79
2023/04/25 00:09:42;;;;;;;3.50;2.23;;;18.30;80.90;;;;;;4882126;29;20296;-80
2023/04/25 00:12:12;;;;;;;6.53;2.40;;;18.30;80.90;;;;;;4886764;29;20744;-80
2023/04/25 00:14:40;;;;;;;3.87;2.23;;;18.30;81.60;;;;;;4889942;29;20248;-81
2023/04/25 00:17:08;;;;;;;4.70;2.00;;;18.30;80.80;;;;;;4891690;29;20192;-81
2023/04/25 00:19:37;;;;;;;5.27;2.07;;;18.30;80.80;;;;;;4892269;29;20200;-81
2023/04/25 00:22:06;;;;;;;3.13;2.13;;;18.30;80.60;;;;;;4890607;29;20260;-81
2023/04/25 00:24:34;;;;;;;3.77;2.90;;;18.30;80.80;;;;;;4885658;29;20620;-79
2023/04/25 00:27:02;;;;;;;3.07;1.57;;;18.30;80.50;;;;;;4887742;29;20198;-80
2023/04/25 00:29:32;;;;;;;3.17;1.97;;;18.30;80.80;;;;;;4879330;29;20216;-81
2023/04/25 00:32:01;;;;;;;4.80;2.27;;;18.30;80.90;;;;;;4885744;29;20193;-81
2023/04/25 00:34:30;;;;;;;3.73;2.43;;;18.30;80.80;;;;;;4880974;29;22453;-80
2023/04/25 00:36:58;;;;;;;5.03;2.67;;;18.20;81.60;;;;;;4886340;29;20228;-80
2023/04/25 00:39:27;;;;;;;3.90;2.57;;;18.20;81.50;;;;;;4888589;29;20252;-81
2023/04/25 00:41:55;;;;;;;3.57;1.73;;;18.10;81.60;;;;;;4889215;29;20201;-82
2023/04/25 00:44:26;;;;;;;4.83;2.37;;;18.10;81.90;;;;;;4889305;29;20208;-83
2023/04/25 00:46:56;;;;;;;5.10;2.00;;;18.00;82.60;;;;;;4883814;29;20213;-82
2023/04/25 00:49:25;;;;;;;4.03;2.27;;;17.90;83.20;;;;;;4892038;29;20217;-82
2023/04/25 00:51:53;;;;;;;4.60;2.67;;;17.90;83.20;;;;;;4891306;29;20228;-81
2023/04/25 00:54:22;;;;;;;3.53;2.60;;;17.90;83.40;;;;;;4890771;29;21068;-81
2023/04/25 00:56:50;;;;;;;3.33;2.47;;;17.90;83.50;;;;;;4893421;29;20208;-81
2023/04/25 00:59:20;;;;;;;5.07;3.10;;;17.80;84.40;;;;;;4893470;29;20204;-81
2023/04/25 01:01:48;;;;;;;3.70;2.40;;;17.80;84.10;;;;;;4891177;29;20192;-81
2023/04/25 01:04:18;;;;;;;5.13;3.00;;;17.80;84.50;;;;;;4890332;29;20208;-82
2023/04/25 01:06:47;;;;;;;3.20;2.13;;;17.70;85.10;;;;;;4894307;29;20231;-82
2023/04/25 01:09:16;;;;;;;3.17;2.33;;;17.70;85.40;;;;;;4889147;29;20221;-80
2023/04/25 01:11:44;;;;;;;3.20;2.50;;;17.70;85.00;;;;;;4894924;29;20196;-78
2023/04/25 01:14:13;;;;;;;4.97;1.60;;;17.70;84.90;;;;;;4894806;29;20650;-81
2023/04/25 01:16:42;;;;;;;2.77;1.90;;;17.70;84.70;;;;;;4893953;29;20714;-81
2023/04/25 01:19:12;;;;;;;3.93;2.27;;;17.70;84.90;;;;;;4883184;29;20197;-81
2023/04/25 01:21:42;;;;;;;2.30;1.47;;;17.60;84.70;;;;;;4893644;29;20200;-81
2023/04/25 01:24:10;;;;;;;2.97;1.50;;;17.70;84.50;;;;;;4888477;29;20204;-80
2023/04/25 01:26:40;;;;;;;3.60;1.87;;;17.70;85.10;;;;;;4887149;29;20948;-82
2023/04/25 01:29:08;;;;;;;3.50;2.27;;;17.70;85.10;;;;;;4885928;29;22188;-82
2023/04/25 01:31:38;;;;;;;3.07;1.43;;;17.70;84.90;;;;;;4891798;29;20255;-81
2023/04/25 01:34:06;;;;;;;3.27;1.87;;;17.70;84.70;;;;;;4889866;29;20205;-81
2023/04/25 01:36:35;;;;;;;2.60;1.70;;;17.70;84.70;;;;;;4895776;29;20260;-81
2023/04/25 01:39:05;;;;;;;4.40;1.83;;;17.70;84.80;;;;;;4883820;29;20220;-81
2023/04/25 01:41:34;;;;;;;3.23;1.40;;;17.60;85.00;;;;;;4887058;29;20641;-81
2023/04/25 01:44:03;;;;;;;2.70;1.50;;;17.60;85.20;;;;;;4889136;29;20607;-81
2023/04/25 01:46:32;;;;;;;5.13;2.20;;;17.60;85.50;;;;;;4897941;29;20204;-81
2023/04/25 01:49:00;;;;;;;4.13;2.10;;;17.60;85.70;;;;;;4886695;29;20565;-79
2023/04/25 01:51:29;;;;;;;5.27;1.70;;;17.60;85.90;;;;;;4889753;29;20595;-80
2023/04/25 01:53:58;;;;;;;4.53;2.33;;;17.60;86.00;;;;;;4884195;29;20192;-80
2023/04/25 01:56:33;;;;;;;1.93;1.33;;;17.60;85.70;;;;;;4891307;29;20214;-81
2023/04/25 01:59:01;;;;;;;5.60;1.67;;;17.50;85.80;;;;;;4893559;29;20228;-80
2023/04/25 02:01:30;;;;;;;3.40;2.23;;;17.50;86.00;;;;;;4887000;29;20189;-80
2023/04/25 02:03:58;;;;;;;1.90;1.33;;;17.50;86.10;;;;;;4891163;29;20296;-81
2023/04/25 02:06:27;;;;;;;1.90;1.40;;;17.50;87.00;;;;;;4890496;29;20228;-80
2023/04/25 02:08:56;;;;;;;4.53;2.10;;;17.40;87.20;;;;;;4892956;29;20220;-80
2023/04/25 02:11:24;;;;;;;3.13;2.37;;;17.40;87.80;;;;;;4884509;29;20200;-79
2023/04/25 02:13:54;;;;;;;3.90;2.17;;;17.40;87.90;;;;;;4888971;29;20200;-80
2023/04/25 02:16:23;;;;;;;2.70;1.53;;;17.30;88.30;;;;;;4894743;29;20233;-79
2023/04/25 02:18:52;;;;;;;3.40;1.97;;;17.30;87.30;;;;;;4902162;29;20214;-81
2023/04/25 02:21:21;;;;;;;1.67;1.20;;;17.30;87.60;;;;;;4891092;29;20207;-81
2023/04/25 02:23:51;;;;;;;2.80;1.30;;;17.30;88.60;;;;;;4893748;29;20252;-80
2023/04/25 02:26:20;;;;;;;3.07;1.60;;;17.30;88.30;;;;;;4891591;29;20653;-82
2023/04/25 02:28:49;;;;;;;3.17;1.77;;;17.30;88.00;;;;;;4894690;29;20192;-80
2023/04/25 02:31:19;;;;;;;2.77;1.67;;;17.30;87.90;;;;;;4894542;29;20200;-81
2023/04/25 02:33:49;;;;;;;2.67;1.57;;;17.30;87.70;;;;;;4888974;29;20264;-80
2023/04/25 02:36:18;;;;;;;3.87;2.63;;;17.30;87.60;;;;;;4890180;29;20636;-80
2023/04/25 02:38:46;;;;;;;3.07;2.07;;;17.20;88.10;;;;;;4890889;29;20255;-80
2023/04/25 02:41:14;;;;;;;2.13;1.40;;;17.20;87.70;;;;;;4888632;29;20248;-79
2023/04/25 02:43:43;;;;;;;3.90;1.87;;;17.20;87.60;;;;;;4886676;29;20197;-80
2023/04/25 02:46:11;;;;;;;2.73;1.77;;;17.20;87.90;;;;;;4890124;29;20639;-79
2023/04/25 02:48:41;;;;;;;2.57;1.83;;;17.20;87.60;;;;;;4886914;29;20729;-80
2023/04/25 02:51:09;;;;;;;1.70;1.10;;;17.10;87.30;;;;;;4891248;29;20288;-80
2023/04/25 02:53:38;;;;;;;1.37;0.90;;;17.10;87.50;;;;;;4886943;29;20251;-81
2023/04/25 02:56:06;;;;;;;4.87;1.43;;;17.10;87.40;;;;;;4889065;29;20200;-79
2023/04/25 02:58:35;;;;;;;1.60;1.23;;;17.10;87.10;;;;;;4895600;29;20223;-80
2023/04/25 03:01:03;;;;;;;2.00;1.40;;;17.00;87.10;;;;;;4889849;29;20226;-81
2023/04/25 03:03:32;;;;;;;2.20;1.17;;;17.00;86.90;;;;;;4888976;29;20211;-80
2023/04/25 03:06:06;;;;;;;4.67;1.33;;;16.90;86.60;;;;;;4896552;29;20203;-81
2023/04/25 03:08:34;;;;;;;2.67;1.47;;;16.90;86.50;;;;;;4884614;29;20196;-79
2023/04/25 03:11:03;;;;;;;2.17;1.40;;;16.80;86.50;;;;;;4884304;29;20213;-80
2023/04/25 03:13:31;;;;;;;1.67;1.00;;;16.80;86.50;;;;;;4884901;29;20721;-80
2023/04/25 03:15:59;;;;;;;1.97;1.70;;;16.80;86.60;;;;;;4886462;29;20713;-80
2023/04/25 03:18:28;;;;;;;0.97;0.70;;;16.80;86.50;;;;;;4883712;29;20197;-81
2023/04/25 03:20:56;;;;;;;1.30;0.90;;;16.80;86.30;;;;;;4879722;29;20599;-81
2023/04/25 03:23:26;;;;;;;1.23;0.70;;;16.80;86.50;;;;;;4884079;29;20227;-78
2023/04/25 03:25:54;;;;;;;1.20;1.00;;;16.80;86.60;;;;;;4881926;29;20204;-79
2023/04/25 03:28:23;;;;;;;2.10;1.27;;;16.70;86.40;;;;;;4884851;29;20244;-81
2023/04/25 03:30:52;;;;;;;1.87;1.30;;;16.70;86.60;;;;;;4881871;29;20220;-81
2023/04/25 03:33:20;;;;;;;1.50;1.13;;;16.60;87.10;;;;;;4882877;29;20201;-81
2023/04/25 03:35:49;;;;;;;1.90;1.27;;;16.60;87.10;;;;;;4882606;29;20231;-81
2023/04/25 03:38:18;;;;;;;1.87;1.10;;;16.50;87.60;;;;;;4883390;29;20765;-80
2023/04/25 03:40:48;;;;;;;3.20;1.43;;;16.50;87.00;;;;;;4889376;29;20199;-80
2023/04/25 03:43:17;;;;;;;2.87;1.33;;;16.50;87.00;;;;;;4886844;29;20204;-82
2023/04/25 03:45:45;;;;;;;2.23;1.40;;;16.50;86.90;;;;;;4894525;29;20712;-80
2023/04/25 03:48:14;;;;;;;2.00;1.37;;;16.40;86.80;;;;;;4894557;29;20197;-80
2023/04/25 03:50:42;;;;;;;3.47;1.87;;;16.50;86.70;;;;;;4893927;29;20272;-80
2023/04/25 03:53:11;;;;;;;1.30;1.00;;;16.40;86.60;;;;;;4891217;29;20256;-81
2023/04/25 03:55:39;;;;;;;3.23;1.50;;;16.40;86.80;;;;;;4888942;29;20231;-80
2023/04/25 03:58:12;;;;;;;1.40;0.83;;;16.50;86.80;;;;;;4890147;29;20589;-80
2023/04/25 04:00:40;;;;;;;3.10;1.63;;;16.40;87.20;;;;;;4890322;29;20623;-80
2023/04/25 04:03:08;;;;;;;3.30;2.03;;;16.40;87.50;;;;;;4890025;29;20253;-80
2023/04/25 04:05:40;;;;;;;1.37;1.00;;;16.40;87.60;;;;;;4892242;29;20196;-81
2023/04/25 04:08:08;;;;;;;2.93;2.00;;;16.30;87.90;;;;;;4891810;29;20197;-80
2023/04/25 04:10:37;;;;;;;5.33;1.90;;;16.40;87.80;;;;;;4890882;29;20646;-80
2023/04/25 04:13:05;;;;;;;3.90;2.20;;;16.30;87.70;;;;;;4880951;29;20662;-80
2023/04/25 04:15:35;;;;;;;3.33;1.63;;;16.30;87.50;;;;;;4886775;29;20654;-81
2023/04/25 04:18:04;;;;;;;3.43;1.43;;;16.40;87.60;;;;;;4883734;29;20201;-81
2023/04/25 04:20:32;;;;;;;2.07;1.33;;;16.40;87.50;;;;;;4893576;29;22515;-83
2023/04/25 04:23:01;;;;;;;2.30;1.33;;;16.40;87.80;;;;;;4890019;29;20402;-81
2023/04/25 04:25:29;;;;;;;2.60;1.67;;;16.30;87.60;;;;;;4891966;29;20200;-82
2023/04/25 04:27:58;;;;;;;1.83;1.17;;;16.30;87.50;;;;;;4892122;29;20197;-81
2023/04/25 04:30:29;;;;;;;2.10;1.00;;;16.30;87.50;;;;;;4889836;29;20689;-80
2023/04/25 04:33:00;;;;;;;4.70;2.63;;;16.30;87.50;;;;;;4885090;29;20665;-81
2023/04/25 04:35:29;;;;;;;2.27;1.50;;;16.30;87.60;;;;;;4886628;29;20240;-80
2023/04/25 04:37:57;;;;;;;4.23;1.90;;;16.30;87.50;;;;;;4881886;29;20264;-78
2023/04/25 04:40:26;;;;;;;2.63;1.60;;;16.40;87.70;;;;;;4888084;29;20251;-79
2023/04/25 04:42:56;;;;;;;2.93;1.63;;;16.40;87.70;;;;;;4885842;29;20200;-80
2023/04/25 04:45:25;;;;;;;4.67;2.10;;;16.40;87.60;;;;;;4890272;29;20204;-79
2023/04/25 04:47:55;;;;;;;3.57;1.90;;;16.40;87.50;;;;;;4894894;29;20244;-79
2023/04/25 04:50:24;;;;;;;9.17;2.87;;;16.40;87.60;;;;;;4891228;29;20589;-80
2023/04/25 04:52:54;;;;;;;9.03;2.73;;;16.40;87.70;;;;;;4885696;29;20209;-79
2023/04/25 04:55:22;;;;;;;8.53;3.13;;;16.40;87.70;;;;;;4891332;29;20657;-79
2023/04/25 04:57:51;;;;;;;5.50;2.80;;;16.40;87.80;;;;;;4887222;29;20204;-78
2023/04/25 05:00:20;;;;;;;11.13;3.07;;;16.40;87.70;;;;;;4882750;29;20208;-80
2023/04/25 05:02:49;;;;;;;10.37;2.77;;;16.40;87.80;;;;;;4888323;29;20212;-79
2023/04/25 05:05:17;;;;;;;8.30;3.17;;;16.40;87.70;;;;;;4888220;29;20295;-80
2023/04/25 05:07:47;;;;;;;6.27;2.50;;;16.40;87.70;;;;;;4876819;29;20255;-79
2023/04/25 05:10:16;;;;;;;4.67;2.77;;;16.40;87.70;;;;;;4889008;29;20203;-79
2023/04/25 05:12:44;;;;;;;7.43;3.27;;;16.30;87.70;;;;;;4887558;29;20196;-80
2023/04/25 05:15:13;;;;;;;5.65;3.50;;;16.30;87.70;;;;;;4890775;29;20537;-82
2023/04/25 05:17:41;;;;;;;7.70;2.73;;;16.30;88.60;;;;;;4890331;29;20566;-85
2023/04/25 05:20:10;;;;;;;8.07;3.40;;;16.40;88.70;;;;;;4886074;29;20219;-82
2023/04/25 05:22:41;;;;;;;7.73;2.87;;;16.30;88.60;;;;;;4879212;29;20200;-83
2023/04/25 05:25:11;;;;;;;8.90;3.30;;;16.40;88.70;;;;;;4892721;29;20646;-83
2023/04/25 05:27:40;;;;;;;5.67;3.30;;;16.30;88.60;;;;;;4894895;29;20237;-84
2023/04/25 05:30:09;;;;;;;5.50;3.10;;;16.30;88.50;;;;;;4890566;29;20565;-84
2023/04/25 05:32:38;;;;;;;6.07;3.20;;;16.30;88.50;;;;;;4887892;29;20232;-84
2023/04/25 05:35:07;;;;;;;6.97;3.77;;;16.40;88.60;;;;;;4886746;29;20212;-84
2023/04/25 05:37:36;;;;;;;6.30;3.17;;;16.40;89.40;;;;;;4889383;29;20197;-85
2023/04/25 05:40:06;;;;;;;7.03;4.00;;;16.40;89.00;;;;;;4897538;29;20193;-84
2023/04/25 05:42:36;;;;;;;5.73;3.67;;;16.40;88.90;;;;;;4890479;29;20196;-88
2023/04/25 05:45:05;;;;;;;14.43;4.03;;;16.40;89.90;;;;;;4886036;29;20212;-88
2023/04/25 05:47:34;;;;;;;8.10;3.70;;;16.40;89.80;;;;;;4894545;29;20192;-87
2023/04/25 05:50:03;;;;;;;10.13;3.87;;;16.40;90.00;;;;;;4890800;29;20663;-87
2023/04/25 05:52:31;;;;;;;8.63;4.57;;;16.40;90.00;;;;;;4878800;29;20247;-87
2023/04/25 05:55:00;;;;;;;10.17;5.20;;;16.50;90.00;;;;;;4890053;29;20204;-84
2023/04/25 05:57:29;;;;;;;12.60;5.87;;;16.50;90.30;;;;;;4895049;29;20211;-84
2023/04/25 05:59:58;;;;;;;8.40;4.03;;;16.50;90.50;;;;;;4888113;29;20192;-87
2023/04/25 06:02:27;;;;;;;7.90;3.90;;;16.40;90.70;;;;;;4891196;29;20224;-87
2023/04/25 06:04:56;;;;;;;7.50;4.10;;;16.40;90.70;;;;;;4895443;29;20658;-86
2023/04/25 06:07:25;;;;;;;9.40;4.00;;;16.40;90.70;;;;;;4889964;29;20205;-84
2023/04/25 06:09:53;;;;;;;7.47;3.77;;;16.40;91.00;;;;;;4890293;29;20204;-87
2023/04/25 06:12:22;;;;;;;6.53;3.97;;;16.40;90.90;;;;;;4893227;29;20264;-84
2023/04/25 06:14:50;;;;;;;18.60;4.33;;;16.40;91.30;;;;;;4888696;29;20561;-84
2023/04/25 06:17:20;;;;;;;8.30;4.33;;;16.40;91.20;;;;;;4893257;29;20269;-84
2023/04/25 06:19:48;;;;;;;8.40;4.17;;;16.40;91.50;;;;;;4889965;29;20200;-85
2023/04/25 06:22:17;;;;;;;10.20;4.37;;;16.40;91.30;;;;;;4889515;29;20208;-82
2023/04/25 06:24:46;;;;;;;6.73;3.83;;;16.40;91.30;;;;;;4891284;29;20219;-83
2023/04/25 06:27:14;;;;;;;6.10;3.57;;;16.40;91.30;;;;;;4895066;29;20546;-83
2023/04/25 06:29:44;;;;;;;6.60;3.40;;;16.40;91.60;;;;;;4898951;29;20248;-83
2023/04/25 06:32:12;;;;;;;5.73;3.73;;;16.40;91.50;;;;;;4893626;29;20212;-82
2023/04/25 06:34:42;;;;;;;5.93;3.23;;;16.40;91.70;;;;;;4893126;29;20200;-82
2023/04/25 06:37:11;;;;;;;7.80;4.30;;;16.40;91.60;;;;;;4886843;29;20641;-80
2023/04/25 06:39:39;;;;;;;7.30;3.90;;;16.40;92.00;;;;;;4888416;29;20192;-83
2023/04/25 06:42:08;;;;;;;4.70;3.43;;;16.40;92.30;;;;;;4895016;29;20220;-84
2023/04/25 06:44:37;;;;;;;11.57;3.60;;;16.40;92.20;;;;;;4890042;29;20196;-82
2023/04/25 06:47:05;;;;;;;5.20;3.97;;;16.40;92.50;;;;;;4890695;29;20681;-82
2023/04/25 06:49:37;;;;;;;7.47;3.50;;;16.40;92.20;;;;;;4891175;29;20259;-84
2023/04/25 06:52:08;;;;;;;6.53;3.70;;;16.40;92.20;;;;;;4892071;29;20272;-84
2023/04/25 06:54:36;;;;;;;5.10;2.90;;;16.50;92.20;;;;;;4889723;29;20197;-80
2023/04/25 06:57:05;;;;;;;6.97;3.47;;;16.40;92.00;;;;;;4892158;29;20245;-78
2023/04/25 06:59:33;;;;;;;7.80;3.60;;;16.50;92.30;;;;;;4890676;29;20741;-79
2023/04/25 07:02:02;;;;;;;4.43;2.63;;;16.50;92.10;;;;;;4886985;29;20192;-79
2023/04/25 07:04:30;;;;;;;7.73;3.77;;;16.50;92.00;;;;;;4893133;29;20662;-84
2023/04/25 07:07:00;;;;;;;8.40;4.17;;;16.50;92.00;;;;;;4886850;29;20211;-82
2023/04/25 07:09:33;;;;;;;6.20;3.37;;;16.50;92.20;;;;;;4897859;29;20393;-82
2023/04/25 07:12:02;;;;;;;3.60;2.33;;;16.50;92.10;;;;;;4892854;29;20231;-87
2023/04/25 07:14:30;;;;;;;8.83;3.73;;;16.50;92.00;;;;;;4888542;29;20264;-84
2023/04/25 07:16:59;;;;;;;6.67;3.67;;;16.60;92.00;;;;;;4889506;29;20196;-82
2023/04/25 07:19:29;;;;;;;3.50;2.33;;;16.60;92.20;;;;;;4889219;29;20231;-83
2023/04/25 07:21:58;;;;;;;12.30;3.97;;;16.60;92.10;;;;;;4887831;29;20793;-84
2023/04/25 07:24:26;;;;;;;3.90;2.33;;;16.70;92.10;;;;;;4892014;29;20268;-83
2023/04/25 07:26:56;;;;;;;6.63;3.37;;;16.70;92.10;;;;;;4895260;29;20252;-84
2023/04/25 07:29:25;;;;;;;5.77;3.63;;;16.80;92.20;;;;;;4892678;29;20280;-86
2023/04/25 07:31:53;;;;;;;5.80;3.10;;;16.80;92.20;;;;;;4888221;29;20316;-85
2023/04/25 07:34:22;;;;;;;6.87;3.23;;;16.80;92.20;;;;;;4897656;29;20216;-84
2023/04/25 07:36:50;;;;;;;8.30;3.17;;;16.80;92.30;;;;;;4899076;29;20243;-84
2023/04/25 07:39:18;;;;;;;7.67;3.37;;;16.80;92.20;;;;;;4885715;29;20658;-81
2023/04/25 07:41:47;;;;;;;8.97;3.97;;;16.90;92.20;;;;;;4892175;29;20252;-80
2023/04/25 07:44:17;;;;;;;5.30;2.90;;;16.90;92.20;;;;;;4892231;29;20201;-83
2023/04/25 07:46:45;;;;;;;6.67;4.00;;;16.90;92.30;;;;;;4888145;29;20569;-84
2023/04/25 07:49:13;;;;;;;7.63;2.63;;;17.00;92.40;;;;;;4894713;29;20240;-82
2023/04/25 07:51:43;;;;;;;5.17;2.87;;;17.00;92.40;;;;;;4888709;29;20196;-83
2023/04/25 07:54:13;;;;;;;6.30;3.07;;;17.00;92.40;;;;;;4887023;29;20219;-82
2023/04/25 07:56:41;;;;;;;6.00;4.10;;;17.10;92.50;;;;;;4888546;29;20199;-82
2023/04/25 07:59:22;;;;;;;4.77;3.07;;;17.10;92.50;;;;;;4895999;29;20645;-83
2023/04/25 08:01:51;;;;;;;7.67;4.50;;;17.10;92.80;;;;;;4889962;29;20260;-82
2023/04/25 08:04:19;;;;;;;5.87;3.57;;;17.10;92.50;;;;;;4890356;29;20646;-83
2023/04/25 08:06:48;;;;;;;11.03;3.87;;;17.10;92.60;;;;;;4892670;29;20689;-83
2023/04/25 08:09:16;;;;;;;4.63;2.93;;;17.10;92.60;;;;;;4884704;29;20654;-83
2023/04/25 08:11:45;;;;;;;5.43;3.40;;;17.20;92.60;;;;;;4890939;29;20189;-82
2023/04/25 08:14:14;;;;;;;7.53;3.30;;;17.20;92.50;;;;;;4891701;29;20665;-83
2023/04/25 08:16:44;;;;;;;7.20;3.33;;;17.20;92.70;;;;;;4895559;29;20197;-86
2023/04/25 08:19:12;;;;;;;6.67;3.60;;;17.20;92.60;;;;;;4891087;29;20201;-80
2023/04/25 08:21:41;;;;;;;6.83;3.70;;;17.20;92.50;;;;;;4892903;29;20200;-79
2023/04/25 08:24:12;;;;;;;10.10;3.13;;;17.20;92.50;;;;;;4889305;29;20205;-83
2023/04/25 08:26:41;;;;;;;9.47;4.40;;;17.30;92.60;;;;;;4885585;29;20208;-80
2023/04/25 08:29:09;;;;;;;8.67;4.33;;;17.30;92.70;;;;;;4892814;29;20224;-81
2023/04/25 08:31:38;;;;;;;6.10;3.40;;;17.30;92.50;;;;;;4886910;29;20252;-81
2023/04/25 08:34:08;;;;;;;9.70;4.63;;;17.30;92.50;;;;;;4885984;29;20697;-81
2023/04/25 08:36:36;;;;;;;6.87;4.23;;;17.30;92.70;;;;;;4882863;29;20236;-81
2023/04/25 08:39:07;;;;;;;7.23;4.00;;;17.30;92.80;;;;;;4886941;29;20209;-81
2023/04/25 08:41:37;;;;;;;6.43;3.63;;;17.40;92.80;;;;;;4891020;29;20227;-80
2023/04/25 08:44:07;;;;;;;5.77;3.57;;;17.40;92.90;;;;;;4893490;29;20252;-83
2023/04/25 08:46:38;;;;;;;9.17;4.20;;;17.40;92.80;;;;;;4891098;29;20200;-81
2023/04/25 08:49:10;;;;;;;6.50;4.10;;;17.40;93.20;;;;;;4881963;29;20220;-81
2023/04/25 08:51:47;;;;;;;7.83;4.10;;;17.40;93.20;;;;;;4892402;29;20283;-82
2023/04/25 08:54:16;;;;;;;6.90;3.53;;;17.40;93.10;;;;;;4898723;29;20234;-82
2023/04/25 08:57:05;;;;;;;10.37;4.10;;;17.40;93.00;;;;;;4893879;29;20283;-82
2023/04/25 08:59:34;;;;;;;6.40;3.37;;;17.50;93.00;;;;;;4883345;29;20196;-82
2023/04/25 09:02:04;;;;;;;5.27;3.50;;;17.50;92.90;;;;;;4897095;29;20668;-81
2023/04/25 09:04:34;;;;;;;8.83;4.83;;;17.50;92.90;;;;;;4885669;29;20196;-81
2023/04/25 09:07:03;;;;;;;8.03;4.07;;;17.60;93.10;;;;;;4888518;29;20196;-81
2023/04/25 09:09:31;;;;;;;6.27;3.33;;;17.60;93.10;;;;;;4891042;29;20705;-81
2023/04/25 09:12:01;;;;;;;7.37;3.87;;;17.70;93.10;;;;;;4887795;29;20535;-81
2023/04/25 09:14:30;;;;;;;9.07;4.50;;;17.70;93.10;;;;;;4886445;29;20232;-81
2023/04/25 09:17:04;;;;;;;8.37;4.33;;;17.80;93.10;;;;;;4886557;29;20216;-81
2023/04/25 09:19:37;;;;;;;6.77;3.60;;;17.80;93.10;;;;;;4888788;29;20199;-81
2023/04/25 09:22:09;;;;;;;7.33;3.53;;;17.90;93.00;;;;;;4890190;29;20200;-81
2023/04/25 09:24:39;;;;;;;6.20;4.00;;;18.00;93.00;;;;;;4892997;29;20219;-80
2023/04/25 09:27:08;;;;;;;5.93;3.70;;;18.10;93.10;;;;;;4893443;29;20212;-80
2023/04/25 09:29:38;;;;;;;7.93;4.27;;;18.20;93.00;;;;;;4893268;29;20293;-80
2023/04/25 09:32:16;;;;;;;11.13;5.27;;;18.30;93.00;;;;;;4886415;29;20208;-80
2023/04/25 09:34:49;;;;;;;7.63;3.43;;;18.40;93.00;;;;;;4886121;29;20208;-80
2023/04/25 09:37:22;;;;;;;8.53;4.10;;;18.50;93.00;;;;;;4889142;29;20579;-80
2023/04/25 09:39:53;;;;;;;6.87;4.47;;;18.70;93.10;;;;;;4888166;29;20228;-80
2023/04/25 09:42:25;;;;;;;7.73;3.20;;;18.70;93.10;;;;;;4884317;29;20719;-84
2023/04/25 09:44:54;;;;;;;4.00;2.30;;;18.80;93.10;;;;;;4892903;29;20710;-81
2023/04/25 09:47:25;;;;;;;7.57;2.47;;;18.90;93.10;;;;;;4878025;29;20264;-83
2023/04/25 09:49:56;;;;;;;3.43;2.00;;;18.90;92.70;;;;;;4884113;29;20248;-83
2023/04/25 09:52:25;;;;;;;4.07;1.57;;;18.90;92.30;;;;;;4886182;29;20662;-81
2023/04/25 09:54:54;;;;;;;2.90;1.90;;;18.90;92.10;;;;;;4884616;29;20231;-84
2023/04/25 09:57:23;;;;;;;4.27;2.27;;;18.90;92.20;;;;;;4888602;29;20196;-81
2023/04/25 09:59:53;;;;;;;2.80;1.67;;;18.90;92.10;;;;;;4884854;29;20201;-81
2023/04/25 10:02:23;;;;;;;3.33;1.80;;;18.90;92.10;;;;;;4885460;29;20209;-79
2023/04/25 10:04:54;;;;;;;3.50;2.00;;;19.00;92.30;;;;;;4888807;29;20225;-79
2023/04/25 10:07:25;;;;;;;3.77;1.93;;;19.10;92.50;;;;;;4885964;29;20205;-80
2023/04/25 10:09:59;;;;;;;3.33;2.03;;;19.10;92.60;;;;;;4883037;29;20198;-80
2023/04/25 10:12:28;;;;;;;5.37;2.00;;;19.20;92.80;;;;;;4888256;29;20200;-79
2023/04/25 10:14:57;;;;;;;2.73;1.83;;;19.30;92.70;;;;;;4886327;29;20231;-79
2023/04/25 10:17:27;;;;;;;3.00;1.57;;;19.40;92.70;;;;;;4885755;29;20201;-80
2023/04/25 10:19:57;;;;;;;4.77;2.20;;;19.40;92.70;;;;;;4891628;29;20236;-80
2023/04/25 10:22:32;;;;;;;3.77;1.90;;;19.50;92.60;;;;;;4892399;29;20204;-80
2023/04/25 10:25:03;;;;;;;4.00;1.83;;;19.50;92.40;;;;;;4891604;29;20599;-81
2023/04/25 10:27:32;;;;;;;3.53;2.07;;;19.50;92.10;;;;;;4894231;29;20193;-82
2023/04/25 10:30:06;;;;;;;2.33;1.57;;;19.60;92.00;;;;;;4891491;29;20189;-83
2023/04/25 10:32:34;;;;;;;7.37;2.03;;;19.50;92.00;;;;;;4893760;29;21984;-81
2023/04/25 10:35:16;;;;;;;5.03;2.57;;;19.50;91.80;;;;;;4885014;29;20294;-81
2023/04/25 10:38:03;;;;;;;5.97;2.80;;;19.50;91.80;;;;;;4885667;29;20220;-83
2023/04/25 10:40:32;;;;;;;4.07;2.53;;;19.50;91.70;;;;;;4891975;29;20198;-80
2023/04/25 10:43:34;;;;;;;3.63;1.87;;;19.50;91.50;;;;;;4894145;29;20196;-84
2023/04/25 10:46:03;;;;;;;3.27;1.77;;;19.60;91.50;;;;;;4885719;29;20259;-85
2023/04/25 10:48:32;;;;;;;3.03;1.80;;;19.70;91.70;;;;;;4884373;29;20304;-84
2023/04/25 10:51:12;;;;;;;3.50;2.13;;;19.80;91.90;;;;;;4890763;29;20209;-83
2023/04/25 10:53:41;;;;;;;4.80;1.90;;;20.00;92.00;;;;;;4894857;29;20760;-81
2023/04/25 10:56:13;;;;;;;2.83;1.85;;;20.10;92.00;;;;;;4890506;29;20189;-80
2023/04/25 10:58:45;;;;;;;2.72;1.63;;;20.20;92.00;;;;;;4884979;29;20402;-87
2023/04/25 11:01:16;;;;;;;3.03;1.60;;;20.20;91.70;;;;;;4881914;29;20189;-82
2023/04/25 11:03:46;;;;;;;2.13;1.52;;;20.20;91.30;;;;;;4878426;29;20224;-81
2023/04/25 11:06:23;;;;;;;2.90;1.65;;;20.30;91.30;;;;;;4888376;29;20201;-82
2023/04/25 11:08:52;;;;;;;2.75;1.58;;;20.30;91.10;;;;;;4887549;29;20204;-83
2023/04/25 11:11:21;;;;;;;2.15;1.35;;;20.30;90.70;;;;;;4892877;29;20220;-82
2023/04/25 11:13:51;;;;;;;2.35;1.45;;;20.30;90.50;;;;;;4892959;29;20224;-81
2023/04/25 11:16:19;;;;;;;2.13;1.65;;;20.40;90.50;;;;;;4888891;29;21526;-79
2023/04/25 11:18:57;;;;;;;3.10;1.60;;;20.50;90.60;;;;;;4889893;29;20194;-81
2023/04/25 11:21:28;;;;;;;2.95;2.00;;;20.60;90.50;;;;;;4896206;29;20572;-83
2023/04/25 11:23:57;;;;;;;2.72;1.90;;;20.60;90.40;;;;;;4885091;29;20193;-81
2023/04/25 11:26:26;;;;;;;2.17;1.48;;;20.70;90.20;;;;;;4886481;29;20201;-81
2023/04/25 11:29:00;;;;;;;2.97;1.70;;;20.70;89.70;;;;;;4890312;29;20663;-82
2023/04/25 11:31:28;;;;;;;2.30;1.42;;;20.70;88.80;;;;;;4890549;29;20249;-79
2023/04/25 11:33:58;;;;;;;2.13;1.40;;;20.80;88.90;;;;;;4893815;29;20231;-81
2023/04/25 11:36:28;;;;;;;2.22;1.70;;;20.90;89.20;;;;;;4892961;29;20232;-83
2023/04/25 11:38:57;;;;;;;3.53;1.50;;;20.80;88.40;;;;;;4887627;29;20197;-85
2023/04/25 11:41:27;;;;;;;2.58;1.50;;;20.70;87.50;;;;;;4886715;29;20679;-82
2023/04/25 11:43:55;;;;;;;2.53;1.27;;;20.70;87.00;;;;;;4890838;29;20253;-82
2023/04/25 11:46:24;;;;;;;2.20;1.27;;;20.60;86.40;;;;;;4891915;29;20205;-83
2023/04/25 11:48:52;;;;;;;3.22;1.40;;;20.60;86.50;;;;;;4886024;29;20209;-81
2023/04/25 11:51:39;;;;;;;1.73;1.50;;;20.50;86.30;;;;;;4895941;29;20226;-82
2023/04/25 11:54:14;;;;;;;5.28;1.85;;;20.40;86.50;;;;;;4887231;29;20213;-85
2023/04/25 11:56:43;;;;;;;2.65;1.67;;;20.30;89.10;;;;;;4890407;29;20668;-83
2023/04/25 11:59:12;;;;;;;3.08;1.58;;;20.10;90.20;;;;;;4898716;29;20224;-84
2023/04/25 12:01:48;;;;;;;4.93;1.10;;;20.00;90.60;;;;;;4889240;29;20662;-84
2023/04/25 12:04:18;;;;;;;2.17;0.77;;;19.80;89.90;;;;;;4891295;29;20204;-80
2023/04/25 12:06:50;;;;;;;0.60;0.50;;;19.60;88.00;;;;;;4894106;29;20204;-83
2023/04/25 12:09:22;;;;;;;1.53;1.07;;;19.50;88.40;;;;;;4884674;29;20189;-83
2023/04/25 12:11:54;;;;;;;2.80;0.80;;;19.40;88.60;;;;;;4889726;29;20220;-80
2023/04/25 12:14:24;;;;;;;3.50;0.90;;;19.30;89.00;;;;;;4885407;29;20227;-81
2023/04/25 12:16:53;;;;;;;2.33;1.60;;;19.20;89.40;;;;;;4894390;29;20205;-84
2023/04/25 12:19:22;;;;;;;2.90;0.90;;;19.10;90.20;;;;;;4892756;29;20197;-81
2023/04/25 12:21:52;;;;;;;1.30;0.73;;;19.00;90.30;;;;;;4890399;29;20196;-80
2023/04/25 12:24:27;;;;;;;0.77;0.50;;;18.90;90.40;;;;;;4896199;29;20369;-81
2023/04/25 12:27:01;;;;;;;0.90;0.57;;;18.90;90.20;;;;;;4892977;29;21560;-82
2023/04/25 12:29:31;;;;;;;0.97;0.70;;;18.80;90.10;;;;;;4882732;29;20193;-82
2023/04/25 12:32:15;;;;;;;1.20;0.73;;;18.80;90.10;;;;;;4896482;29;20204;-81
2023/04/25 12:34:44;;;;;;;1.33;0.60;;;18.80;90.10;;;;;;4894296;29;20689;-79
2023/04/25 12:37:14;;;;;;;0.90;0.50;;;18.70;90.10;;;;;;4884553;29;20228;-81
2023/04/25 12:39:43;;;;;;;1.23;0.63;;;18.70;90.00;;;;;;4889138;29;21481;-81
2023/04/25 12:42:12;;;;;;;0.90;0.43;;;18.70;90.10;;;;;;4889011;29;20290;-81
2023/04/25 12:44:41;;;;;;;0.87;0.57;;;18.80;90.20;;;;;;4887241;29;20244;-80
2023/04/25 12:47:09;;;;;;;1.60;1.00;;;18.80;90.20;;;;;;4887227;29;20201;-81
2023/04/25 12:49:41;;;;;;;4.30;2.03;;;18.80;90.20;;;;;;4878719;29;20213;-82
2023/04/25 12:52:10;;;;;;;2.57;1.00;;;18.90;90.40;;;;;;4880537;29;20208;-83
2023/04/25 12:54:43;;;;;;;2.70;0.87;;;19.00;90.50;;;;;;4890745;29;20213;-81
2023/04/25 12:57:11;;;;;;;2.33;1.03;;;19.10;90.60;;;;;;4883387;29;20572;-82
2023/04/25 12:59:40;;;;;;;1.77;0.90;;;19.10;90.60;;;;;;4892247;29;20200;-81